createdAt,value
2022-07-27T00:01:14.634Z,99.90
2022-07-27T00:03:44.671Z,99.90
2022-07-27T00:06:13.425Z,99.90
2022-07-27T00:08:41.628Z,99.90
2022-07-27T00:11:11.646Z,99.90
2022-07-27T00:13:40.691Z,99.90
2022-07-27T00:16:09.425Z,99.90
2022-07-27T00:18:37.616Z,99.90
2022-07-27T00:21:05.885Z,99.90
2022-07-27T00:23:34.116Z,99.90
2022-07-27T00:26:02.217Z,99.90
2022-07-27T00:28:31.768Z,99.90
2022-07-27T00:31:00.164Z,99.90
2022-07-27T00:33:28.353Z,99.90
2022-07-27T00:35:56.468Z,99.90
2022-07-27T00:38:25.137Z,99.90
2022-07-27T00:40:53.744Z,99.90
2022-07-27T00:43:21.803Z,99.90
2022-07-27T00:45:51.463Z,99.90
2022-07-27T00:48:19.560Z,99.90
2022-07-27T00:50:49.000Z,99.90
2022-07-27T00:53:17.823Z,99.90
2022-07-27T00:55:46.644Z,99.90
2022-07-27T00:58:15.620Z,99.90
2022-07-27T01:00:43.808Z,99.90
2022-07-27T01:03:13.694Z,99.90
2022-07-27T01:05:44.747Z,99.90
2022-07-27T01:08:15.196Z,99.90
2022-07-27T01:10:44.866Z,99.90
2022-07-27T01:13:13.752Z,99.90
2022-07-27T01:15:44.039Z,99.90
2022-07-27T01:18:26.486Z,99.90
2022-07-27T01:20:54.673Z,99.90
2022-07-27T01:23:24.369Z,99.90
2022-07-27T01:25:52.701Z,99.90
2022-07-27T01:28:21.192Z,99.90
2022-07-27T01:30:49.357Z,99.90
2022-07-27T01:33:17.682Z,99.90
2022-07-27T01:35:45.771Z,99.90
2022-07-27T01:38:14.442Z,99.90
2022-07-27T01:40:43.866Z,99.90
2022-07-27T01:43:11.973Z,99.90
2022-07-27T01:45:41.302Z,99.90
2022-07-27T01:48:10.534Z,99.90
2022-07-27T01:50:39.514Z,99.90
2022-07-27T01:53:09.570Z,99.90
2022-07-27T01:55:39.440Z,99.90
2022-07-27T01:58:09.800Z,99.90
2022-07-27T02:00:38.818Z,99.90
2022-07-27T02:03:08.940Z,99.90
2022-07-27T02:05:39.529Z,99.90
2022-07-27T02:08:09.325Z,99.90
2022-07-27T02:10:58.578Z,99.90
2022-07-27T02:13:27.147Z,99.90
2022-07-27T02:15:56.978Z,99.90
2022-07-27T02:18:33.001Z,99.90
2022-07-27T02:21:04.579Z,99.90
2022-07-27T02:23:32.780Z,99.90
2022-07-27T02:26:01.220Z,99.90
2022-07-27T02:28:30.752Z,99.90
2022-07-27T02:30:58.871Z,99.90
2022-07-27T02:33:27.406Z,99.90
2022-07-27T02:35:55.570Z,99.90
2022-07-27T02:38:23.682Z,99.90
2022-07-27T02:40:51.755Z,99.90
2022-07-27T02:43:19.865Z,99.90
2022-07-27T02:45:49.500Z,99.90
2022-07-27T02:48:17.791Z,99.90
2022-07-27T02:50:45.972Z,99.90
2022-07-27T02:53:14.069Z,99.90
2022-07-27T02:55:42.399Z,99.90
2022-07-27T02:58:10.553Z,99.90
2022-07-27T03:00:38.754Z,99.90
2022-07-27T03:03:08.240Z,99.90
2022-07-27T03:05:36.847Z,99.90
2022-07-27T03:08:05.602Z,99.90
2022-07-27T03:10:33.748Z,99.90
2022-07-27T03:13:01.811Z,99.90
2022-07-27T03:15:30.628Z,99.90
2022-07-27T03:17:58.764Z,99.90
2022-07-27T03:20:28.446Z,99.90
2022-07-27T03:22:56.596Z,99.90
2022-07-27T03:25:25.893Z,99.90
2022-07-27T03:27:53.966Z,99.90
2022-07-27T03:30:22.502Z,99.90
2022-07-27T03:32:50.812Z,99.90
2022-07-27T03:35:19.812Z,99.90
2022-07-27T03:37:50.025Z,99.90
2022-07-27T03:40:18.795Z,99.90
2022-07-27T03:42:47.015Z,99.90
2022-07-27T03:45:15.196Z,99.90
2022-07-27T03:47:43.395Z,99.90
2022-07-27T03:50:12.359Z,99.90
2022-07-27T03:52:40.475Z,99.90
2022-07-27T03:55:15.342Z,99.90
2022-07-27T03:57:43.515Z,99.90
2022-07-27T04:00:14.027Z,99.90
2022-07-27T04:02:42.724Z,99.90
2022-07-27T04:05:11.842Z,99.90
2022-07-27T04:07:41.135Z,99.90
2022-07-27T04:10:10.862Z,99.90
2022-07-27T04:12:41.421Z,99.90
2022-07-27T04:15:10.813Z,99.90
2022-07-27T04:17:54.610Z,99.90
2022-07-27T04:20:25.820Z,99.90
2022-07-27T04:22:53.999Z,99.90
2022-07-27T04:25:22.576Z,99.90
2022-07-27T04:27:54.342Z,99.90
2022-07-27T04:30:23.101Z,99.90
2022-07-27T04:32:51.495Z,99.90
2022-07-27T04:35:24.253Z,99.90
2022-07-27T04:37:58.835Z,99.90
2022-07-27T04:40:32.305Z,99.90
2022-07-27T04:43:02.814Z,99.90
2022-07-27T04:45:31.539Z,99.90
2022-07-27T04:48:00.006Z,99.90
2022-07-27T04:50:28.016Z,99.90
2022-07-27T04:52:56.044Z,99.90
2022-07-27T04:55:24.312Z,99.90
2022-07-27T04:57:52.397Z,99.90
2022-07-27T05:00:22.024Z,99.90
2022-07-27T05:02:50.118Z,99.90
2022-07-27T05:05:18.268Z,99.90
2022-07-27T05:07:46.300Z,99.90
2022-07-27T05:10:19.445Z,99.90
2022-07-27T05:12:48.735Z,99.90
2022-07-27T05:15:17.598Z,99.90
2022-07-27T05:17:47.109Z,99.90
2022-07-27T05:20:17.435Z,99.90
2022-07-27T05:22:45.487Z,99.90
2022-07-27T05:25:13.969Z,99.90
2022-07-27T05:27:54.762Z,99.90
2022-07-27T05:30:25.359Z,99.90
2022-07-27T05:32:54.914Z,99.90
2022-07-27T05:35:23.512Z,99.90
2022-07-27T05:37:51.611Z,99.90
2022-07-27T05:40:19.866Z,99.90
2022-07-27T05:42:48.176Z,99.90
2022-07-27T05:45:16.734Z,99.90
2022-07-27T05:47:44.881Z,99.90
2022-07-27T05:50:15.042Z,99.90
2022-07-27T05:52:43.698Z,99.90
2022-07-27T05:55:12.683Z,99.90
2022-07-27T05:57:42.063Z,99.90
2022-07-27T06:00:12.342Z,99.90
2022-07-27T06:02:40.805Z,99.90
2022-07-27T06:05:15.246Z,99.90
2022-07-27T06:08:00.086Z,99.90
2022-07-27T06:10:30.082Z,99.90
2022-07-27T06:12:58.161Z,99.90
2022-07-27T06:15:26.266Z,99.90
2022-07-27T06:17:54.739Z,99.90
2022-07-27T06:20:24.771Z,99.90
2022-07-27T06:22:57.125Z,99.90
2022-07-27T06:25:34.166Z,99.90
2022-07-27T06:28:04.925Z,99.90
2022-07-27T06:30:33.625Z,99.90
2022-07-27T06:33:04.176Z,99.90
2022-07-27T06:35:32.470Z,99.90
2022-07-27T06:38:03.121Z,99.90
2022-07-27T06:40:32.139Z,99.90
2022-07-27T06:43:00.455Z,99.90
2022-07-27T06:45:28.806Z,99.90
2022-07-27T06:47:57.557Z,99.90
2022-07-27T06:50:26.221Z,99.90
2022-07-27T06:52:54.339Z,99.90
2022-07-27T06:55:23.788Z,99.90
2022-07-27T06:57:51.951Z,99.90
2022-07-27T07:00:20.000Z,99.90
2022-07-27T07:02:57.023Z,99.90
2022-07-27T07:05:25.806Z,99.90
2022-07-27T07:07:55.301Z,99.90
2022-07-27T07:10:27.024Z,99.90
2022-07-27T07:12:56.525Z,99.90
2022-07-27T07:15:26.235Z,99.90
2022-07-27T07:17:54.658Z,99.90
2022-07-27T07:20:23.452Z,99.90
2022-07-27T07:22:51.783Z,99.90
2022-07-27T07:25:19.837Z,99.90
2022-07-27T07:27:49.986Z,99.90
2022-07-27T07:30:18.143Z,99.90
2022-07-27T07:32:46.189Z,99.90
2022-07-27T07:35:14.434Z,99.90
2022-07-27T07:37:42.758Z,99.90
2022-07-27T07:40:41.525Z,99.90
2022-07-27T07:43:03.995Z,99.90
2022-07-27T07:45:39.091Z,99.90
2022-07-27T07:48:19.740Z,99.90
2022-07-27T07:50:51.507Z,99.90
2022-07-27T07:53:21.466Z,99.90
2022-07-27T07:55:49.698Z,99.90
2022-07-27T07:58:19.267Z,99.90
2022-07-27T08:00:47.399Z,99.90
2022-07-27T08:03:16.229Z,99.90
2022-07-27T08:05:44.732Z,99.90
2022-07-27T08:08:13.334Z,99.90
2022-07-27T08:10:41.768Z,99.90
2022-07-27T08:13:09.877Z,99.90
2022-07-27T08:15:39.357Z,99.90
2022-07-27T08:18:09.509Z,99.90
2022-07-27T08:20:37.649Z,99.90
2022-07-27T08:23:06.069Z,99.90
2022-07-27T08:25:34.677Z,99.90
2022-07-27T08:28:03.046Z,99.90
2022-07-27T08:30:32.935Z,99.90
2022-07-27T08:33:05.745Z,99.90
2022-07-27T08:35:36.246Z,99.90
2022-07-27T08:38:09.394Z,99.90
2022-07-27T08:40:42.529Z,99.90
2022-07-27T08:43:18.895Z,99.90
2022-07-27T08:45:56.325Z,99.90
2022-07-27T08:48:27.673Z,99.90
2022-07-27T08:50:56.673Z,99.90
2022-07-27T08:53:25.329Z,99.90
2022-07-27T08:55:56.693Z,99.90
2022-07-27T08:58:25.068Z,99.90
2022-07-27T09:00:53.464Z,99.90
2022-07-27T09:03:23.802Z,99.90
2022-07-27T09:05:56.352Z,99.90
2022-07-27T09:08:30.195Z,99.90
2022-07-27T09:11:00.908Z,99.90
2022-07-27T09:13:31.642Z,99.90
2022-07-27T09:16:19.347Z,99.90
2022-07-27T09:18:49.629Z,99.90
2022-07-27T09:21:22.539Z,99.90
2022-07-27T09:23:53.500Z,99.90
2022-07-27T09:26:33.875Z,99.90
2022-07-27T09:29:06.054Z,99.90
2022-07-27T09:31:41.689Z,99.90
2022-07-27T09:34:10.205Z,99.90
2022-07-27T09:36:53.917Z,99.90
2022-07-27T09:39:24.836Z,99.90
2022-07-27T09:41:55.673Z,99.90
2022-07-27T09:44:41.971Z,99.90
2022-07-27T09:47:26.326Z,99.90
2022-07-27T09:49:57.175Z,99.90
2022-07-27T09:52:31.097Z,99.90
2022-07-27T09:55:05.953Z,99.90
2022-07-27T09:57:53.192Z,99.90
2022-07-27T10:00:22.494Z,99.90
2022-07-27T10:02:51.096Z,99.90
2022-07-27T10:05:21.639Z,99.90
2022-07-27T10:07:54.397Z,99.90
2022-07-27T10:10:24.089Z,99.90
2022-07-27T10:12:55.264Z,99.90
2022-07-27T10:15:24.368Z,99.90
2022-07-27T10:18:07.394Z,99.90
2022-07-27T10:20:42.169Z,99.90
2022-07-27T10:23:28.776Z,99.90
2022-07-27T10:26:22.767Z,99.90
2022-07-27T10:28:57.961Z,99.90
2022-07-27T10:31:28.498Z,99.90
2022-07-27T10:34:00.127Z,99.90
2022-07-27T10:36:53.843Z,99.90
2022-07-27T10:39:36.370Z,99.90
2022-07-27T10:42:25.219Z,99.90
2022-07-27T10:45:00.531Z,99.90
2022-07-27T10:47:41.521Z,99.90
2022-07-27T10:50:29.755Z,99.90
2022-07-27T10:53:02.454Z,99.90
2022-07-27T10:55:50.120Z,99.90
2022-07-27T10:58:51.199Z,99.90
2022-07-27T11:01:22.610Z,99.90
2022-07-27T11:03:53.562Z,99.90
2022-07-27T11:06:41.860Z,99.90
2022-07-27T11:12:07.732Z,99.90
2022-07-27T11:14:47.486Z,99.90
2022-07-27T11:17:49.454Z,99.90
2022-07-27T11:20:06.959Z,99.90
2022-07-27T11:23:20.806Z,99.90
2022-07-27T11:25:27.483Z,99.90
2022-07-27T11:27:56.934Z,99.90
2022-07-27T11:30:27.744Z,99.90
2022-07-27T11:32:56.802Z,99.90
2022-07-27T11:35:26.148Z,99.90
2022-07-27T11:38:03.210Z,99.90
2022-07-27T11:43:45.214Z,99.90
2022-07-27T11:46:17.149Z,99.90
2022-07-27T11:49:08.425Z,99.90
2022-07-27T11:51:41.167Z,99.90
2022-07-27T11:54:12.454Z,99.90
2022-07-27T11:56:44.401Z,99.90
2022-07-27T11:59:17.610Z,99.90
2022-07-27T12:01:51.156Z,99.90
2022-07-27T12:04:27.472Z,99.90
2022-07-27T12:07:07.607Z,99.90
2022-07-27T12:09:39.120Z,99.90
2022-07-27T12:12:18.014Z,99.90
2022-07-27T12:14:51.050Z,99.90
2022-07-27T12:17:31.011Z,99.90
2022-07-27T12:20:05.917Z,99.90
2022-07-27T12:22:39.022Z,99.90
2022-07-27T12:25:16.074Z,99.90
2022-07-27T12:27:57.325Z,99.90
2022-07-27T12:30:35.263Z,99.90
2022-07-27T12:33:07.278Z,99.90
2022-07-27T12:35:47.181Z,99.90
2022-07-27T12:38:16.250Z,99.90
2022-07-27T12:40:47.743Z,99.90
2022-07-27T12:43:19.162Z,99.90
2022-07-27T12:45:51.769Z,99.90
2022-07-27T12:48:23.480Z,99.90
2022-07-27T12:51:00.625Z,99.90
2022-07-27T12:53:30.162Z,99.90
2022-07-27T12:56:01.362Z,99.90
2022-07-27T12:58:29.658Z,99.90
2022-07-27T13:00:59.162Z,99.90
2022-07-27T13:03:27.278Z,99.90
2022-07-27T13:05:55.287Z,99.90
2022-07-27T13:08:23.562Z,99.90
2022-07-27T13:10:52.836Z,99.90
2022-07-27T13:13:24.266Z,99.90
2022-07-27T13:15:52.735Z,99.90
2022-07-27T13:18:24.026Z,99.90
2022-07-27T13:20:52.530Z,99.90
2022-07-27T13:23:21.306Z,99.90
2022-07-27T13:25:49.608Z,99.90
2022-07-27T13:28:17.906Z,99.90
2022-07-27T13:30:45.900Z,99.90
2022-07-27T13:33:14.021Z,99.90
2022-07-27T13:35:43.661Z,99.90
2022-07-27T13:38:16.304Z,99.90
2022-07-27T13:40:45.175Z,99.90
2022-07-27T13:43:13.282Z,99.90
2022-07-27T13:45:43.325Z,99.90
2022-07-27T13:48:13.050Z,99.90
2022-07-27T13:50:42.816Z,99.90
2022-07-27T13:53:15.270Z,99.90
2022-07-27T13:55:44.650Z,99.90
2022-07-27T13:58:12.889Z,99.90
2022-07-27T14:00:41.644Z,99.90
2022-07-27T14:03:11.514Z,99.90
2022-07-27T14:05:45.429Z,99.70
2022-07-27T14:08:20.951Z,99.00
2022-07-27T14:10:49.077Z,98.80
2022-07-27T14:13:22.168Z,98.50
2022-07-27T14:15:54.473Z,98.10
2022-07-27T14:18:26.289Z,98.60
2022-07-27T14:20:55.441Z,98.00
2022-07-27T14:23:26.274Z,98.30
2022-07-27T14:25:56.695Z,98.10
2022-07-27T14:28:26.494Z,98.20
2022-07-27T14:30:55.243Z,98.00
2022-07-27T14:33:24.628Z,98.20
2022-07-27T14:35:53.588Z,98.00
2022-07-27T14:38:29.719Z,97.20
2022-07-27T14:41:01.585Z,97.50
2022-07-27T14:43:30.510Z,97.60
2022-07-27T14:45:59.263Z,97.10
2022-07-27T14:48:48.867Z,97.10
2022-07-27T14:51:16.014Z,97.60
2022-07-27T14:53:44.138Z,98.20
2022-07-27T14:56:13.723Z,98.20
2022-07-27T14:58:41.904Z,98.20
2022-07-27T15:01:10.068Z,98.40
2022-07-27T15:03:38.208Z,98.00
2022-07-27T15:06:06.400Z,98.40
2022-07-27T15:08:34.503Z,98.90
2022-07-27T15:11:02.598Z,98.20
2022-07-27T15:13:32.085Z,98.50
2022-07-27T15:16:00.262Z,98.70
2022-07-27T15:18:28.474Z,98.70
2022-07-27T15:20:56.555Z,98.30
2022-07-27T15:23:24.666Z,98.30
2022-07-27T15:25:53.710Z,98.50
2022-07-27T15:28:21.891Z,98.00
2022-07-27T15:30:53.520Z,98.70
2022-07-27T15:33:21.570Z,97.70
2022-07-27T15:35:49.690Z,97.90
2022-07-27T15:38:17.732Z,97.80
2022-07-27T15:40:45.829Z,97.70
2022-07-27T15:43:17.224Z,97.70
2022-07-27T15:45:48.864Z,97.50
2022-07-27T15:48:20.515Z,96.90
2022-07-27T15:50:52.571Z,97.10
2022-07-27T15:53:23.061Z,97.20
2022-07-27T15:55:52.744Z,97.20
2022-07-27T15:58:22.039Z,97.30
2022-07-27T16:00:56.118Z,97.00
2022-07-27T16:03:27.450Z,97.10
2022-07-27T16:05:56.905Z,96.60
2022-07-27T16:08:27.066Z,97.20
2022-07-27T16:10:55.072Z,96.60
2022-07-27T16:13:23.135Z,96.50
2022-07-27T16:16:09.206Z,97.00
2022-07-27T16:18:39.240Z,96.80
2022-07-27T16:21:07.532Z,96.60
2022-07-27T16:23:35.876Z,96.60
2022-07-27T16:26:06.101Z,96.50
2022-07-27T16:28:38.493Z,96.60
2022-07-27T16:31:08.669Z,96.70
2022-07-27T16:33:38.927Z,97.10
2022-07-27T16:36:08.493Z,96.80
2022-07-27T16:38:36.932Z,97.00
2022-07-27T16:41:07.333Z,97.00
2022-07-27T16:43:38.070Z,97.20
2022-07-27T16:46:10.003Z,97.20
2022-07-27T16:48:41.701Z,96.90
2022-07-27T16:51:11.157Z,97.40
2022-07-27T16:53:40.060Z,97.70
2022-07-27T16:56:09.183Z,97.60
2022-07-27T16:58:39.227Z,97.50
2022-07-27T17:01:09.401Z,97.50
2022-07-27T17:03:39.049Z,97.60
2022-07-27T17:06:07.569Z,97.90
2022-07-27T17:08:36.626Z,97.60
2022-07-27T17:11:06.206Z,97.60
2022-07-27T17:13:35.715Z,97.70
2022-07-27T17:16:05.682Z,97.50
2022-07-27T17:18:39.957Z,97.30
2022-07-27T17:21:12.526Z,97.40
2022-07-27T17:23:41.988Z,97.80
2022-07-27T17:26:11.300Z,98.00
2022-07-27T17:28:40.754Z,97.80
2022-07-27T17:31:12.411Z,98.00
2022-07-27T17:33:41.800Z,97.90
2022-07-27T17:36:14.997Z,97.90
2022-07-27T17:38:44.386Z,97.90
2022-07-27T17:41:13.194Z,98.00
2022-07-27T17:43:41.835Z,98.30
2022-07-27T17:46:12.627Z,97.90
2022-07-27T17:48:41.447Z,98.00
2022-07-27T17:51:11.630Z,98.00
2022-07-27T17:53:40.015Z,97.90
2022-07-27T17:56:08.531Z,97.90
2022-07-27T17:58:36.907Z,98.20
2022-07-27T18:01:05.325Z,98.30
2022-07-27T18:03:33.718Z,98.40
2022-07-27T18:06:02.644Z,98.70
2022-07-27T18:08:32.194Z,98.50
2022-07-27T18:11:00.533Z,98.50
2022-07-27T18:13:39.505Z,98.70
2022-07-27T18:16:11.545Z,98.80
2022-07-27T18:18:41.265Z,98.90
2022-07-27T18:21:10.997Z,98.90
2022-07-27T18:23:40.977Z,99.00
2022-07-27T18:26:10.810Z,99.20
2022-07-27T18:28:40.029Z,99.40
2022-07-27T18:31:12.280Z,99.40
2022-07-27T18:33:45.712Z,99.60
2022-07-27T18:36:14.520Z,99.80
2022-07-27T18:38:45.056Z,99.90
2022-07-27T18:41:14.087Z,99.90
2022-07-27T18:43:42.204Z,99.90
2022-07-27T18:46:10.303Z,99.90
2022-07-27T18:48:38.830Z,99.90
2022-07-27T18:51:06.927Z,99.90
2022-07-27T18:53:35.059Z,99.90
2022-07-27T18:56:04.875Z,99.90
2022-07-27T18:58:33.235Z,99.90
2022-07-27T19:01:01.199Z,99.90
2022-07-27T19:03:30.501Z,99.90
2022-07-27T19:05:58.590Z,99.90
2022-07-27T19:08:26.807Z,99.90
2022-07-27T19:10:54.868Z,99.90
2022-07-27T19:13:24.353Z,99.90
2022-07-27T19:15:52.471Z,99.90
2022-07-27T19:18:20.548Z,99.90
2022-07-27T19:20:48.648Z,99.90
2022-07-27T19:23:17.167Z,99.90
2022-07-27T19:25:46.085Z,99.90
2022-07-27T19:28:18.885Z,99.90
2022-07-27T19:30:48.694Z,99.90
2022-07-27T19:33:16.730Z,99.90
2022-07-27T19:35:44.903Z,99.90
2022-07-27T19:38:13.356Z,99.90
2022-07-27T19:40:45.006Z,99.90
2022-07-27T19:43:15.739Z,99.90
2022-07-27T19:45:44.001Z,99.90
2022-07-27T19:48:13.738Z,99.90
2022-07-27T19:50:42.422Z,99.90
2022-07-27T19:53:10.624Z,99.90
2022-07-27T19:55:38.840Z,99.90
2022-07-27T19:58:06.894Z,99.90
2022-07-27T20:00:35.021Z,99.90
2022-07-27T20:03:03.423Z,99.90
2022-07-27T20:05:32.931Z,99.90
2022-07-27T20:08:01.102Z,99.90
2022-07-27T20:10:29.216Z,99.90
2022-07-27T20:12:57.415Z,99.90
2022-07-27T20:15:26.311Z,99.90
2022-07-27T20:17:54.320Z,99.90
2022-07-27T20:20:22.691Z,99.90
2022-07-27T20:22:52.453Z,99.90
2022-07-27T20:25:20.557Z,99.90
2022-07-27T20:27:48.934Z,99.90
2022-07-27T20:30:19.955Z,99.90
2022-07-27T20:32:49.006Z,99.90
2022-07-27T20:35:17.768Z,99.90
2022-07-27T20:37:47.318Z,99.90
2022-07-27T20:40:16.886Z,99.90
2022-07-27T20:42:45.315Z,99.90
2022-07-27T20:45:14.590Z,99.90
2022-07-27T20:47:44.131Z,99.90
2022-07-27T20:50:15.429Z,99.90
2022-07-27T20:52:44.318Z,99.90
2022-07-27T20:55:12.967Z,99.90
2022-07-27T20:57:42.325Z,99.90
2022-07-27T21:00:12.752Z,99.90
2022-07-27T21:02:40.906Z,99.90
2022-07-27T21:05:10.417Z,99.90
2022-07-27T21:07:38.834Z,99.90
2022-07-27T21:10:08.560Z,99.90
2022-07-27T21:12:36.698Z,99.90
2022-07-27T21:15:13.075Z,99.90
2022-07-27T21:17:41.724Z,99.90
2022-07-27T21:20:11.489Z,99.90
2022-07-27T21:22:39.528Z,99.90
2022-07-27T21:25:08.663Z,99.90
2022-07-27T21:27:37.127Z,99.90
2022-07-27T21:30:09.633Z,99.90
2022-07-27T21:32:37.665Z,99.90
2022-07-27T21:35:07.363Z,99.90
2022-07-27T21:37:35.600Z,99.90
2022-07-27T21:40:03.646Z,99.90
2022-07-27T21:42:32.986Z,99.90
2022-07-27T21:45:01.000Z,99.90
2022-07-27T21:47:31.904Z,99.90
2022-07-27T21:50:00.092Z,99.90
2022-07-27T21:52:28.063Z,99.90
2022-07-27T21:54:56.113Z,99.90
2022-07-27T21:57:24.187Z,99.90
2022-07-27T21:59:52.425Z,99.90
2022-07-27T22:02:20.524Z,99.90
2022-07-27T22:04:50.089Z,99.90
2022-07-27T22:07:19.564Z,99.90
2022-07-27T22:09:47.728Z,99.90
2022-07-27T22:12:15.857Z,99.90
2022-07-27T22:14:43.977Z,99.90
2022-07-27T22:17:12.041Z,99.90
2022-07-27T22:19:40.242Z,99.90
2022-07-27T22:22:09.685Z,99.90
2022-07-27T22:24:38.084Z,99.90
2022-07-27T22:27:06.890Z,99.90
2022-07-27T22:29:35.607Z,99.90
2022-07-27T22:32:03.988Z,99.90
2022-07-27T22:34:32.149Z,99.90
2022-07-27T22:37:00.501Z,99.90
2022-07-27T22:39:30.114Z,99.90
2022-07-27T22:41:59.045Z,99.90
2022-07-27T22:44:27.242Z,99.90
2022-07-27T22:46:55.477Z,99.90
2022-07-27T22:49:23.690Z,99.90
2022-07-27T22:51:52.841Z,99.90
2022-07-27T22:54:23.067Z,99.90
2022-07-27T22:56:53.320Z,99.90
2022-07-27T22:59:21.840Z,99.90
2022-07-27T23:01:49.942Z,99.90
2022-07-27T23:04:18.732Z,99.90
2022-07-27T23:06:47.652Z,99.90
2022-07-27T23:09:16.727Z,99.90
2022-07-27T23:11:45.501Z,99.90
2022-07-27T23:14:15.340Z,99.90
2022-07-27T23:16:44.471Z,99.90
2022-07-27T23:19:12.682Z,99.90
2022-07-27T23:21:41.754Z,99.90
2022-07-27T23:24:13.521Z,99.90
2022-07-27T23:26:42.702Z,99.90
2022-07-27T23:29:10.954Z,99.90
2022-07-27T23:31:40.503Z,99.90
2022-07-27T23:34:08.677Z,99.90
2022-07-27T23:36:36.760Z,99.90
2022-07-27T23:39:05.190Z,99.90
2022-07-27T23:41:33.232Z,99.90
2022-07-27T23:44:01.353Z,99.90
2022-07-27T23:46:29.598Z,99.90
2022-07-27T23:48:59.089Z,99.90
2022-07-27T23:51:27.174Z,99.90
2022-07-27T23:53:55.195Z,99.90
2022-07-27T23:56:23.239Z,99.90
2022-07-27T23:58:51.275Z,99.90
